Panama City Beach, Florida
Current Conditions -  °F | °C
As of 9:53 PM on Wednesday 28 Jan 2015 (Local Time) from KECP Reporting Station
Clear Clear  
Wind Chill: 40°   Ceiling: Unl
Heat Index: 43°   Visibility: 10mi
Dew Point: 35°   Wind: 5mph
Humidity: 74%   Direction: 80°E
Pressure: 30.28"   Gusts: NA
Location:  30.21°N, 85.85°W
Report Text: KECP 290353Z 08004KT 10SM CLR 06/02 A3028 RMK AO2 SLP267 T00610017
Loading
Personal Weather Stations






























Interactive Weather Map New forecast layout! Learn more

10-Day Weather Forecast

Advertisements
Track Severe Weather on mobile